Racecast

Tony Bomia

Temperance Bedford (MI) · 12 · SECMI D1MONROE · Compare head to head

Athlete rating 112.8 2016 TF season
Best race 123.5 XC
Races 60
Seasons 5 2012 — 2016

RankedNation #38962·MI #1746·MI D1 #1043·SEC #118·Team #23 ?

Cross Country

2015 XC 117.0

Temperance Bedford (MI) · Grade 12

Date Meet Event Result Place Rating Difficulty PR/SR Flags
2015-09-10 Munson Park 5000m 18:55.4 69th · 9th on team 118.0 +0.054 ★CR SR CSR RSR
2015-09-04 Hillsdale College 5000m 19:27.6 15th · 10th on team 116.1 +0.070 ★CR SR CSR RSR

2014 XC 117.7

Temperance Bedford (MI) · Grade 11

Date Meet Event Result Place Rating Difficulty PR/SR Flags
2014-11-01 Michigan International Speedway (MIS) 5000m 18:08.4 244th · 7th on team 120.3 +0.022 ★CR CSR
2014-10-25 Lake Erie Metro Park OFFICIAL 5000m 18:12.8 44th · 6th on team 123.1 +0.055 ★CR CSR
2014-10-04 Portage West MS 5000m 17:45 183rd · 7th on team 123.5 +0.038 ★PR ★CR ★R SR CSR RSR
2014-09-23 Huron Meadows Metropark OFFICIAL 5000m 18:45.6 45th · 6th on team 120.0 +0.052 ★CR R CSR RSR
2014-09-20 Ella Sharp Park OFFICIAL 5000m 18:58.5 164th · 7th on team 115.9 +0.038 ★CR CSR RSR
2014-09-09 Hudson Mills Metropark - OFFICIAL 5000m 19:02.4 64th · 7th on team 115.8 +0.036 CSR RSR
2014-09-06 Hedges Boyer Park 5000m 18:43.7 263rd · 5th on team 108.3 -0.036 PR ★CR SR CSR
2014-08-28 Heritage Park (Adrian) OFFICIAL 5000m 19:51.1 46th · 7th on team 114.7 +0.084 ★CR SR CSR RSR

2013 XC 112.5

Temperance Bedford (MI) · Grade 10

Date Meet Event Result Place Rating Difficulty PR/SR Flags
2013-10-26 Lake Erie Metro Park OFFICIAL 5000m 19:12 40th · 5th on team 117.2 +0.055 CR R CSR RSR
2013-10-17 Hudson Mills Metropark - OFFICIAL 5000m 18:56.5 57th · 4th on team 115.1 +0.036 PR ★CR SR CSR
2013-10-05 Portage West MS 5000m 19:03 106th · 4th on team 116.6 +0.038 CR CSR
2013-09-28 Pearson's Metro Park 5000m 19:03.8 25th · 6th on team 109.6 -0.022 ★CR CSR
2013-09-21 Ella Sharp Park OFFICIAL 5000m 19:16.8 103rd · 5th on team 113.6 +0.038 CR CSR
2013-09-13 Forest Akers East Golf Course 5000m 18:57 87th · 4th on team 117.1 +0.061 PR ★CR R SR CSR RSR
2013-09-10 Pioneer HS 5000m 22:03.3 94th · 1st on team 102.9 +0.067 ★CR CSR
2013-08-24 Island Lake Recreation Area OFFICIAL 5000m 21:14 13th · 13th on team 107.9 +0.069 ★CR SR CSR RSR

2012 XC 101.5

Temperance Bedford (MI) · Grade 9

Date Meet Event Result Place Rating Difficulty PR/SR Flags
2012-10-18 Hudson Mills Metropark - OFFICIAL 5000m 20:31.3 130th · 10th on team 107.9 +0.036 CR CSR
2012-10-06 Portage West MS 5000m 20:29.3 344th · 11th on team 106.5 +0.038 PR CR SR CSR
2012-09-29 Pearson's Metro Park 5000m 21:17 83rd · 9th on team 97.3 -0.022 CR CSR
2012-09-27 Munson Park 5000m 20:31.9 78th · 7th on team 108.0 +0.054 PR CR R SR CSR RSR
2012-09-11 Indian Creek OFFICIAL 5000m 23:12.1 157th · 11th on team 95.4 +0.039 ★CR CSR
2012-09-08 Hedges Boyer Park 5000m 21:24.9 395th · 5th on team 96.3 -0.036 PR CR SR CSR
2012-08-25 Island Lake Recreation Area OFFICIAL 5000m 22:59 113th · 12th on team 99.3 +0.069 PR CR R SR CSR RSR

Track & Field

2016 TF 109.9

Temperance Bedford (MI) · Grade 12

Date Meet Event Result Place Rating Difficulty PR/SR Flags
2016-05-18 Eagle Boys Invitational 1600m 4:58.23 15th · 1st on team 113.8 -0.033 SR RSR
2016-05-13 SEC Red Division Finals 3200m 10:59.49 20th · 2nd on team 112.0 -0.033
2016-05-03 SEC Tri: Huron/Skyline @ Bedford 1600m 4:58.88 6th · 5th on team 113.1 -0.033 SR RSR
2016-05-03 SEC Tri: Huron/Skyline @ Bedford 3200m 11:17.41 6th · 3rd on team 108.4 -0.033
2016-05-03 SEC Tri: Huron/Skyline @ Bedford 800m 2:24.59 8th · 5th on team 103.8 -0.033
2016-04-26 Bedford @ Monroe 3200m 11:25.3 6th · 2nd on team 107.5 -0.032
2016-04-26 Bedford @ Monroe 400m 1:01.14 3rd · 2nd on team -0.032 ★PR SR
2016-04-23 Whitmore Lake HS Invite 3200m 11:13.71 8th · 3rd on team 110.0 -0.029
2016-04-19 Saline @ Bedford 800m 2:23.56 18th · 6th on team 105.6 -0.033 SR
2016-04-19 Saline @ Bedford 1600m 5:04.79 16th · 4th on team 111.9 -0.033 SR
2016-04-14 Springfield Invitational 3200m 11:10 5th · 2nd on team 110.4 -0.029
2016-04-12 SEC: Bedford @ Pioneer 3200m 10:56.84 8th · 2nd on team 112.8 -0.028 SR RSR

2015 TF 112.4

Temperance Bedford (MI) · Grade 11

Date Meet Event Result Place Rating Difficulty PR/SR Flags
2015-05-15 MHSAA LP Regional 03-1 @ Saline 3200m 11:02.47 18th · 1st on team 110.4 -0.042
2015-05-07 SEC: Red Division Finals 3200m 10:35.08 14th · 1st on team 117.1 -0.032 ★PR SR RSR
2015-05-05 SEC Dual: Bedford at Monroe 3200m 10:52 1st · 1st on team 113.0 -0.032
2015-05-01 St. Francis Knight Relays 3200m 10:42.41 10th · 1st on team 113.7 -0.043 PR SR
2015-04-28 SEC: Skyline @ Bedford 1600m 4:57.8 3rd · 1st on team 114.4 -0.033 ★PR SR
2015-04-28 SEC: Skyline @ Bedford 800m 2:17 6th · 2nd on team 109.8 -0.033 ★PR SR
2015-04-25 Whitmore Lake HS Invite 3200m 11:17.96 8th · 3rd on team 109.2 -0.029
2015-04-25 Whitmore Lake HS Invite 1600m 4:59.92 6th · 2nd on team 114.3 -0.029 PR SR
2015-04-21 SEC: Bedford @ Pioneer 1600m 5:02.57 4th · 1st on team 114.7 -0.028 PR SR RSR
2015-04-21 SEC: Bedford @ Pioneer 800m 2:25.47 10th · 3rd on team 105.5 -0.028 PR SR
2015-04-16 Springfield Invitational 3200m 10:47.92 3rd · 1st on team 114.1 -0.029 PR SR RSR

2014 TF 109.0

Temperance Bedford (MI) · Grade 10

Date Meet Event Result Place Rating Difficulty PR/SR Flags
2014-05-16 MHSAA Regional 3-1 @ Saline 3200m 10:53.69 18th · 2nd on team 111.6 -0.042 PR SR RSR
2014-05-09 SEC Championships 3200m 11:11.02 12th · 3rd on team 110.4 -0.032 PR SR RSR
2014-05-06 Saline Quad 1600m 5:14.21 17th · 4th on team 107.5 -0.042 SR
2014-04-29 SEC Dual:Bedford @ Skyline 3200m 11:33.32 3rd · 1st on team 106.9 -0.033
2014-04-17 Springfield Invitational 3200m 11:15.59 11th · 1st on team 109.8 -0.029 PR SR RSR
2014-04-03 SEC Dual: Huron @ Bedford 3200m 11:26.1 1st · 1st on team 108.1 -0.033 PR SR RSR

2013 TF 104.6

Temperance Bedford (MI) · Grade 9

Date Meet Event Result Place Rating Difficulty PR/SR Flags
2013-05-10 Siena Heights Invitational 3200m 11:39.69 22nd · 1st on team 104.5 -0.037
2013-04-30 Skyline vs Bedford pv 8' -0.033
2013-04-23 Pioneer vs. Bedford 3200m 11:34.05 4th · 2nd on team 106.6 -0.028 PR SR
2013-04-16 Saline vs. Bedford Dual 1600m 5:12 16th · 5th on team 108.7 -0.033 PR R SR RSR
2013-04-09 Bedford v. AA Huron 3200m 11:55.2 3rd · 3rd on team 102.7 -0.034 PR SR RSR
2013-04-05 Knight Warm-Up 3200m 12:20.3 2nd · 2nd on team 100.3 -0.021 PR SR RSR